sensor_id;sensor_type;location;lat;lon;timestamp;temperature;humidity
40323;DHT22;26030;51.164;17.100;2023-03-03T00:03:20;23.00;48.70
40323;DHT22;26030;51.164;17.100;2023-03-03T00:08:26;23.10;48.60
40323;DHT22;26030;51.164;17.100;2023-03-03T00:13:30;23.10;48.30
40323;DHT22;26030;51.164;17.100;2023-03-03T00:18:36;23.20;48.30
40323;DHT22;26030;51.164;17.100;2023-03-03T00:23:44;23.20;48.40
40323;DHT22;26030;51.164;17.100;2023-03-03T00:28:50;23.30;48.40
40323;DHT22;26030;51.164;17.100;2023-03-03T00:33:54;23.30;48.20
40323;DHT22;26030;51.164;17.100;2023-03-03T00:39:16;23.40;48.10
40323;DHT22;26030;51.164;17.100;2023-03-03T00:55:10;23.40;48.00
40323;DHT22;26030;51.164;17.100;2023-03-03T01:00:14;23.40;48.00
40323;DHT22;26030;51.164;17.100;2023-03-03T01:05:19;23.40;48.50
40323;DHT22;26030;51.164;17.100;2023-03-03T01:10:25;23.30;48.00
40323;DHT22;26030;51.164;17.100;2023-03-03T01:15:30;23.10;48.50
40323;DHT22;26030;51.164;17.100;2023-03-03T01:20:34;23.00;48.60
40323;DHT22;26030;51.164;17.100;2023-03-03T01:25:40;22.90;48.80
40323;DHT22;26030;51.164;17.100;2023-03-03T01:30:44;22.70;49.30
40323;DHT22;26030;51.164;17.100;2023-03-03T01:35:48;22.70;49.50
40323;DHT22;26030;51.164;17.100;2023-03-03T01:40:53;22.60;49.30
40323;DHT22;26030;51.164;17.100;2023-03-03T01:51:17;22.50;49.40
40323;DHT22;26030;51.164;17.100;2023-03-03T01:56:26;22.50;49.50
40323;DHT22;26030;51.164;17.100;2023-03-03T02:01:30;22.40;49.60
40323;DHT22;26030;51.164;17.100;2023-03-03T02:06:37;22.30;49.70
40323;DHT22;26030;51.164;17.100;2023-03-03T02:11:47;22.30;50.10
40323;DHT22;26030;51.164;17.100;2023-03-03T02:16:55;22.30;49.80
40323;DHT22;26030;51.164;17.100;2023-03-03T02:21:59;22.10;49.80
40323;DHT22;26030;51.164;17.100;2023-03-03T02:27:07;22.10;49.80
40323;DHT22;26030;51.164;17.100;2023-03-03T02:32:11;22.10;49.90
40323;DHT22;26030;51.164;17.100;2023-03-03T02:37:16;22.00;50.00
40323;DHT22;26030;51.164;17.100;2023-03-03T02:42:22;22.00;49.80
40323;DHT22;26030;51.164;17.100;2023-03-03T02:47:31;22.00;50.20
40323;DHT22;26030;51.164;17.100;2023-03-03T02:52:35;21.90;50.10
40323;DHT22;26030;51.164;17.100;2023-03-03T02:57:41;21.80;50.10
40323;DHT22;26030;51.164;17.100;2023-03-03T03:02:45;22.00;50.00
40323;DHT22;26030;51.164;17.100;2023-03-03T03:07:50;22.30;49.60
40323;DHT22;26030;51.164;17.100;2023-03-03T03:12:54;22.60;49.00
40323;DHT22;26030;51.164;17.100;2023-03-03T03:17:59;22.80;48.90
40323;DHT22;26030;51.164;17.100;2023-03-03T03:23:03;22.80;48.70
40323;DHT22;26030;51.164;17.100;2023-03-03T03:28:07;22.80;48.70
40323;DHT22;26030;51.164;17.100;2023-03-03T03:33:12;22.90;48.30
40323;DHT22;26030;51.164;17.100;2023-03-03T03:38:16;23.00;48.00
40323;DHT22;26030;51.164;17.100;2023-03-03T03:43:23;23.00;47.70
40323;DHT22;26030;51.164;17.100;2023-03-03T03:48:28;23.10;47.80
40323;DHT22;26030;51.164;17.100;2023-03-03T03:53:32;23.10;47.80
40323;DHT22;26030;51.164;17.100;2023-03-03T03:58:36;23.10;47.50
40323;DHT22;26030;51.164;17.100;2023-03-03T04:03:43;23.30;47.60
40323;DHT22;26030;51.164;17.100;2023-03-03T04:08:50;23.30;47.60
40323;DHT22;26030;51.164;17.100;2023-03-03T04:13:56;23.40;47.30
40323;DHT22;26030;51.164;17.100;2023-03-03T04:19:01;23.40;47.60
40323;DHT22;26030;51.164;17.100;2023-03-03T04:24:07;23.50;47.40
40323;DHT22;26030;51.164;17.100;2023-03-03T04:29:12;23.50;47.20
40323;DHT22;26030;51.164;17.100;2023-03-03T04:34:17;23.60;47.20
40323;DHT22;26030;51.164;17.100;2023-03-03T04:39:22;23.70;47.10
40323;DHT22;26030;51.164;17.100;2023-03-03T04:44:26;23.70;46.90
40323;DHT22;26030;51.164;17.100;2023-03-03T04:49:30;23.70;46.90
40323;DHT22;26030;51.164;17.100;2023-03-03T04:54:35;23.70;46.80
40323;DHT22;26030;51.164;17.100;2023-03-03T04:59:39;23.70;47.00
40323;DHT22;26030;51.164;17.100;2023-03-03T05:04:43;23.70;47.00
40323;DHT22;26030;51.164;17.100;2023-03-03T05:09:47;23.50;47.00
40323;DHT22;26030;51.164;17.100;2023-03-03T05:14:51;23.40;47.30
40323;DHT22;26030;51.164;17.100;2023-03-03T05:19:55;23.30;47.30
40323;DHT22;26030;51.164;17.100;2023-03-03T05:24:59;23.10;47.70
40323;DHT22;26030;51.164;17.100;2023-03-03T05:30:04;22.90;48.10
40323;DHT22;26030;51.164;17.100;2023-03-03T05:35:09;22.90;48.20
40323;DHT22;26030;51.164;17.100;2023-03-03T05:40:13;22.80;48.10
40323;DHT22;26030;51.164;17.100;2023-03-03T05:45:17;22.70;48.30
40323;DHT22;26030;51.164;17.100;2023-03-03T05:50:26;22.60;48.50
40323;DHT22;26030;51.164;17.100;2023-03-03T05:55:30;22.60;48.90
40323;DHT22;26030;51.164;17.100;2023-03-03T06:00:35;22.50;48.60
40323;DHT22;26030;51.164;17.100;2023-03-03T06:05:39;22.50;48.80
40323;DHT22;26030;51.164;17.100;2023-03-03T06:10:43;22.40;49.00
40323;DHT22;26030;51.164;17.100;2023-03-03T06:15:48;22.40;48.90
40323;DHT22;26030;51.164;17.100;2023-03-03T06:20:52;22.30;49.10
40323;DHT22;26030;51.164;17.100;2023-03-03T06:25:57;22.20;49.30
40323;DHT22;26030;51.164;17.100;2023-03-03T06:31:01;22.30;49.50
40323;DHT22;26030;51.164;17.100;2023-03-03T06:36:09;22.00;49.50
40323;DHT22;26030;51.164;17.100;2023-03-03T06:41:13;22.00;50.40
40323;DHT22;26030;51.164;17.100;2023-03-03T06:46:18;22.00;50.30
40323;DHT22;26030;51.164;17.100;2023-03-03T06:51:26;22.00;50.80
40323;DHT22;26030;51.164;17.100;2023-03-03T06:56:36;22.00;50.50
40323;DHT22;26030;51.164;17.100;2023-03-03T07:01:41;21.80;50.70
40323;DHT22;26030;51.164;17.100;2023-03-03T07:06:47;21.80;51.00
40323;DHT22;26030;51.164;17.100;2023-03-03T07:11:52;21.90;51.00
40323;DHT22;26030;51.164;17.100;2023-03-03T07:16:59;21.80;51.10
40323;DHT22;26030;51.164;17.100;2023-03-03T07:27:28;21.80;51.30
40323;DHT22;26030;51.164;17.100;2023-03-03T07:37:41;21.70;50.60
40323;DHT22;26030;51.164;17.100;2023-03-03T07:42:45;21.70;51.30
40323;DHT22;26030;51.164;17.100;2023-03-03T07:47:58;21.70;50.70
40323;DHT22;26030;51.164;17.100;2023-03-03T07:58:45;22.30;48.90
40323;DHT22;26030;51.164;17.100;2023-03-03T08:03:50;22.50;48.80
40323;DHT22;26030;51.164;17.100;2023-03-03T08:08:56;22.50;47.50
40323;DHT22;26030;51.164;17.100;2023-03-03T08:14:11;22.60;47.20
40323;DHT22;26030;51.164;17.100;2023-03-03T08:19:19;22.70;46.80
40323;DHT22;26030;51.164;17.100;2023-03-03T08:24:23;22.70;46.40
40323;DHT22;26030;51.164;17.100;2023-03-03T08:29:27;22.90;46.00
40323;DHT22;26030;51.164;17.100;2023-03-03T08:34:31;22.80;45.80
40323;DHT22;26030;51.164;17.100;2023-03-03T08:39:35;22.70;46.00
40323;DHT22;26030;51.164;17.100;2023-03-03T08:44:39;22.80;45.90
40323;DHT22;26030;51.164;17.100;2023-03-03T08:49:44;22.90;46.00
40323;DHT22;26030;51.164;17.100;2023-03-03T08:54:48;22.90;45.30
40323;DHT22;26030;51.164;17.100;2023-03-03T08:59:52;23.00;45.20
40323;DHT22;26030;51.164;17.100;2023-03-03T09:04:56;23.10;45.40
40323;DHT22;26030;51.164;17.100;2023-03-03T09:10:00;23.10;45.10
40323;DHT22;26030;51.164;17.100;2023-03-03T09:15:13;23.30;46.30
40323;DHT22;26030;51.164;17.100;2023-03-03T09:25:35;23.40;44.40
40323;DHT22;26030;51.164;17.100;2023-03-03T09:30:40;23.40;44.00
40323;DHT22;26030;51.164;17.100;2023-03-03T09:35:51;23.40;44.30
40323;DHT22;26030;51.164;17.100;2023-03-03T10:25:21;23.50;43.90
40323;DHT22;26030;51.164;17.100;2023-03-03T10:30:18;23.20;44.90
40323;DHT22;26030;51.164;17.100;2023-03-03T10:53:10;22.70;45.30
40323;DHT22;26030;51.164;17.100;2023-03-03T10:58:24;22.70;45.40
40323;DHT22;26030;51.164;17.100;2023-03-03T11:04:29;22.60;45.30
40323;DHT22;26030;51.164;17.100;2023-03-03T11:09:53;22.50;45.50
40323;DHT22;26030;51.164;17.100;2023-03-03T11:31:55;22.20;45.40
40323;DHT22;26030;51.164;17.100;2023-03-03T11:37:06;22.10;45.40
40323;DHT22;26030;51.164;17.100;2023-03-03T11:42:31;22.00;45.50
40323;DHT22;26030;51.164;17.100;2023-03-03T11:53:44;21.90;45.50
40323;DHT22;26030;51.164;17.100;2023-03-03T12:04:37;21.90;45.50
40323;DHT22;26030;51.164;17.100;2023-03-03T12:41:24;23.10;44.00
40323;DHT22;26030;51.164;17.100;2023-03-03T12:51:51;23.20;43.50
40323;DHT22;26030;51.164;17.100;2023-03-03T13:23:06;23.50;43.50
40323;DHT22;26030;51.164;17.100;2023-03-03T13:33:43;23.60;43.40
40323;DHT22;26030;51.164;17.100;2023-03-03T13:39:01;23.60;43.70
40323;DHT22;26030;51.164;17.100;2023-03-03T13:44:33;23.60;43.30
40323;DHT22;26030;51.164;17.100;2023-03-03T14:05:37;23.40;43.80
40323;DHT22;26030;51.164;17.100;2023-03-03T14:11:09;23.50;43.70
40323;DHT22;26030;51.164;17.100;2023-03-03T14:21:57;23.30;44.50
40323;DHT22;26030;51.164;17.100;2023-03-03T14:27:14;23.00;45.10
40323;DHT22;26030;51.164;17.100;2023-03-03T14:32:27;23.00;45.10
40323;DHT22;26030;51.164;17.100;2023-03-03T14:37:47;22.90;45.70
40323;DHT22;26030;51.164;17.100;2023-03-03T14:42:54;22.90;45.30
40323;DHT22;26030;51.164;17.100;2023-03-03T14:48:05;22.80;45.20
40323;DHT22;26030;51.164;17.100;2023-03-03T14:53:20;22.80;44.70
40323;DHT22;26030;51.164;17.100;2023-03-03T14:58:39;22.70;44.80
40323;DHT22;26030;51.164;17.100;2023-03-03T15:04:04;22.60;44.60
40323;DHT22;26030;51.164;17.100;2023-03-03T15:09:31;22.60;44.50
40323;DHT22;26030;51.164;17.100;2023-03-03T15:14:47;22.50;44.60
40323;DHT22;26030;51.164;17.100;2023-03-03T15:31:18;22.30;45.80
40323;DHT22;26030;51.164;17.100;2023-03-03T15:36:33;22.10;45.80
40323;DHT22;26030;51.164;17.100;2023-03-03T15:58:09;22.10;46.80
40323;DHT22;26030;51.164;17.100;2023-03-03T16:08:42;22.00;48.10
40323;DHT22;26030;51.164;17.100;2023-03-03T16:20:02;22.00;49.70
40323;DHT22;26030;51.164;17.100;2023-03-03T16:25:25;22.10;49.60
40323;DHT22;26030;51.164;17.100;2023-03-03T16:41:09;22.10;50.50
40323;DHT22;26030;51.164;17.100;2023-03-03T16:46:21;22.20;50.10
40323;DHT22;26030;51.164;17.100;2023-03-03T16:51:44;22.40;50.70
40323;DHT22;26030;51.164;17.100;2023-03-03T17:02:39;22.20;51.10
40323;DHT22;26030;51.164;17.100;2023-03-03T17:08:10;22.20;51.40
40323;DHT22;26030;51.164;17.100;2023-03-03T17:25:03;22.10;52.20
40323;DHT22;26030;51.164;17.100;2023-03-03T17:30:41;22.30;52.60
40323;DHT22;26030;51.164;17.100;2023-03-03T17:36:18;22.50;51.80
40323;DHT22;26030;51.164;17.100;2023-03-03T17:41:51;22.50;52.10
40323;DHT22;26030;51.164;17.100;2023-03-03T17:47:04;22.40;51.70
40323;DHT22;26030;51.164;17.100;2023-03-03T17:52:20;22.30;51.40
40323;DHT22;26030;51.164;17.100;2023-03-03T17:57:43;22.10;52.40
40323;DHT22;26030;51.164;17.100;2023-03-03T18:08:58;22.00;54.50
40323;DHT22;26030;51.164;17.100;2023-03-03T18:14:38;21.80;53.70
40323;DHT22;26030;51.164;17.100;2023-03-03T18:31:02;21.70;55.00
40323;DHT22;26030;51.164;17.100;2023-03-03T18:41:34;21.70;54.80
40323;DHT22;26030;51.164;17.100;2023-03-03T18:47:09;21.80;54.60
40323;DHT22;26030;51.164;17.100;2023-03-03T18:52:20;21.80;53.60
40323;DHT22;26030;51.164;17.100;2023-03-03T18:57:38;21.90;54.60
40323;DHT22;26030;51.164;17.100;2023-03-03T19:02:55;22.10;54.70
40323;DHT22;26030;51.164;17.100;2023-03-03T19:08:03;22.30;54.10
40323;DHT22;26030;51.164;17.100;2023-03-03T19:13:39;22.40;54.40
40323;DHT22;26030;51.164;17.100;2023-03-03T19:19:28;22.70;54.00
40323;DHT22;26030;51.164;17.100;2023-03-03T19:24:39;22.90;53.80
40323;DHT22;26030;51.164;17.100;2023-03-03T19:56:52;23.30;53.20
40323;DHT22;26030;51.164;17.100;2023-03-03T20:07:33;22.90;54.10
40323;DHT22;26030;51.164;17.100;2023-03-03T20:18:42;22.90;54.80
40323;DHT22;26030;51.164;17.100;2023-03-03T20:40:20;22.70;54.00
40323;DHT22;26030;51.164;17.100;2023-03-03T20:51:31;22.30;54.10
40323;DHT22;26030;51.164;17.100;2023-03-03T21:08:01;22.10;54.80
40323;DHT22;26030;51.164;17.100;2023-03-03T21:19:09;22.00;54.60
40323;DHT22;26030;51.164;17.100;2023-03-03T21:24:16;21.90;55.00
40323;DHT22;26030;51.164;17.100;2023-03-03T21:34:37;21.80;53.70
40323;DHT22;26030;51.164;17.100;2023-03-03T21:39:42;21.80;53.80
40323;DHT22;26030;51.164;17.100;2023-03-03T21:44:49;21.80;54.30
40323;DHT22;26030;51.164;17.100;2023-03-03T21:49:54;21.70;53.90
40323;DHT22;26030;51.164;17.100;2023-03-03T21:54:58;21.60;55.30
40323;DHT22;26030;51.164;17.100;2023-03-03T22:00:03;21.50;56.90
40323;DHT22;26030;51.164;17.100;2023-03-03T22:05:09;21.40;56.90
40323;DHT22;26030;51.164;17.100;2023-03-03T22:10:14;21.60;58.70
40323;DHT22;26030;51.164;17.100;2023-03-03T22:15:18;21.50;58.50
40323;DHT22;26030;51.164;17.100;2023-03-03T22:20:22;21.50;58.00
40323;DHT22;26030;51.164;17.100;2023-03-03T22:25:26;21.50;57.50
40323;DHT22;26030;51.164;17.100;2023-03-03T22:30:30;21.40;57.10
40323;DHT22;26030;51.164;17.100;2023-03-03T22:35:34;21.80;56.40
40323;DHT22;26030;51.164;17.100;2023-03-03T22:40:38;22.30;55.60
40323;DHT22;26030;51.164;17.100;2023-03-03T22:45:43;22.60;54.70
40323;DHT22;26030;51.164;17.100;2023-03-03T22:50:47;22.90;53.40
40323;DHT22;26030;51.164;17.100;2023-03-03T22:55:52;23.00;53.30
40323;DHT22;26030;51.164;17.100;2023-03-03T23:00:56;23.20;52.60
40323;DHT22;26030;51.164;17.100;2023-03-03T23:06:00;23.10;52.60
40323;DHT22;26030;51.164;17.100;2023-03-03T23:11:04;23.00;52.50
40323;DHT22;26030;51.164;17.100;2023-03-03T23:16:08;23.10;52.30
40323;DHT22;26030;51.164;17.100;2023-03-03T23:21:13;23.10;51.90
40323;DHT22;26030;51.164;17.100;2023-03-03T23:26:18;23.10;51.60
40323;DHT22;26030;51.164;17.100;2023-03-03T23:31:22;23.10;51.60
40323;DHT22;26030;51.164;17.100;2023-03-03T23:36:28;23.20;51.60
40323;DHT22;26030;51.164;17.100;2023-03-03T23:41:32;23.20;51.50
40323;DHT22;26030;51.164;17.100;2023-03-03T23:46:37;23.20;51.10
40323;DHT22;26030;51.164;17.100;2023-03-03T23:51:42;23.20;50.30
40323;DHT22;26030;51.164;17.100;2023-03-03T23:56:46;23.10;49.90
